createdAt,value
2019-06-01T02:11:41.562Z,15.40
2019-06-01T02:14:29.857Z,15.40
2019-06-01T02:17:37.308Z,15.30
2019-06-01T02:20:25.384Z,15.30
2019-06-01T02:28:50.423Z,16.20
2019-06-01T02:31:42.128Z,15.30
2019-06-01T02:34:28.459Z,15.10
2019-06-01T02:37:16.559Z,15.10
2019-06-01T02:40:23.988Z,15.10
2019-06-01T02:43:12.267Z,15.10
2019-06-01T02:46:02.104Z,15.20
2019-06-01T02:48:50.441Z,15.00
2019-06-01T02:51:38.468Z,15.00
2019-06-01T02:54:17.674Z,15.00
2019-06-01T02:57:06.203Z,14.90
2019-06-01T02:59:56.299Z,14.90
2019-06-01T03:09:14.426Z,14.80
2019-06-01T03:31:28.380Z,14.70
2019-06-01T03:37:31.437Z,14.70
2019-06-01T03:40:23.960Z,14.70
2019-06-01T03:43:09.494Z,14.70
2019-06-01T03:45:57.729Z,14.80
2019-06-01T03:48:46.000Z,14.70
2019-06-01T03:51:34.299Z,14.60
2019-06-01T03:54:13.306Z,14.70
2019-06-01T03:57:01.369Z,14.70
2019-06-01T04:00:09.380Z,14.60
2019-06-01T04:02:58.397Z,14.70
2019-06-01T04:05:46.472Z,14.60
2019-06-01T04:08:34.583Z,14.70
2019-06-01T04:11:22.692Z,14.80
2019-06-01T04:17:04.785Z,14.80
2019-06-01T04:19:54.346Z,14.80
2019-06-01T04:22:42.380Z,14.90
2019-06-01T04:25:32.438Z,15.00
2019-06-01T04:28:20.648Z,14.90
2019-06-01T04:31:08.764Z,15.00
2019-06-01T04:33:56.868Z,15.00
2019-06-01T04:36:45.735Z,15.10
2019-06-01T04:39:33.816Z,15.20
2019-06-01T04:42:21.880Z,15.30
2019-06-01T04:45:10.898Z,15.30
2019-06-01T04:48:00.031Z,15.50
2019-06-01T04:50:48.153Z,15.50
2019-06-01T04:53:36.226Z,15.70
2019-06-01T04:56:05.266Z,15.70
2019-06-01T05:01:41.028Z,15.90
2019-06-01T05:04:11.070Z,16.10
2019-06-01T05:06:59.676Z,16.20
2019-06-01T05:09:47.867Z,16.40
2019-06-01T05:12:35.899Z,16.30
2019-06-01T05:18:19.687Z,16.60
2019-06-01T05:21:08.469Z,16.60
2019-06-01T05:23:57.969Z,16.80
2019-06-01T05:26:46.158Z,16.90
2019-06-01T05:29:34.185Z,16.90
2019-06-01T05:32:22.288Z,17.10
2019-06-01T05:41:19.926Z,17.10
2019-06-01T05:44:09.301Z,17.10
2019-06-01T05:46:57.441Z,17.30
2019-06-01T05:49:45.580Z,17.30
2019-06-01T05:52:52.764Z,17.30
2019-06-01T05:55:33.216Z,17.40
2019-06-01T05:58:14.987Z,17.50
2019-06-01T06:00:54.229Z,17.50
2019-06-01T06:03:42.269Z,17.50
2019-06-01T06:06:30.404Z,17.60
2019-06-01T06:09:19.140Z,17.80
2019-06-01T06:12:08.543Z,17.80
2019-06-01T06:14:56.746Z,17.90
2019-06-01T06:17:44.955Z,18.00
2019-06-01T06:20:33.182Z,18.10
2019-06-01T06:23:22.631Z,18.10
2019-06-01T06:26:11.195Z,18.20
2019-06-01T06:28:59.344Z,18.20
2019-06-01T06:31:47.574Z,18.10
2019-06-01T06:34:35.823Z,18.20
2019-06-01T06:37:24.071Z,18.20
2019-06-01T06:43:32.928Z,18.30
2019-06-01T06:46:16.607Z,18.60
2019-06-01T06:49:04.865Z,18.70
2019-06-01T06:51:52.999Z,18.90
2019-06-01T06:54:31.989Z,19.00
2019-06-01T06:57:20.220Z,19.10
2019-06-01T07:06:29.438Z,20.00
2019-06-01T07:09:36.652Z,20.10
2019-06-01T07:12:25.382Z,20.10
2019-06-01T07:15:14.699Z,20.20
2019-06-01T07:18:02.836Z,20.20
2019-06-01T07:20:51.080Z,20.40
2019-06-01T07:23:39.248Z,20.50
2019-06-01T07:26:28.157Z,20.60
2019-06-01T07:29:20.019Z,20.70
2019-06-01T07:32:09.082Z,20.80
2019-06-01T07:35:00.734Z,20.90
2019-06-01T07:37:46.987Z,21.10
2019-06-01T07:40:35.065Z,21.10
2019-06-01T07:43:23.212Z,21.40
2019-06-01T07:46:11.520Z,21.60
2019-06-01T07:48:59.746Z,21.60
2019-06-01T07:51:48.263Z,21.60
2019-06-01T07:54:42.233Z,21.70
2019-06-01T07:57:30.334Z,21.60
2019-06-01T08:00:22.207Z,21.80
2019-06-01T08:03:10.168Z,21.60
2019-06-01T08:05:58.298Z,21.90
2019-06-01T08:08:46.594Z,21.90
2019-06-01T08:11:56.368Z,21.90
2019-06-01T08:14:44.711Z,22.40
2019-06-01T08:20:39.783Z,24.10
2019-06-01T08:26:22.613Z,25.10
2019-06-01T08:29:11.004Z,24.50
2019-06-01T08:35:26.989Z,26.10
2019-06-01T08:41:29.934Z,25.70
2019-06-01T08:47:07.028Z,26.40
2019-06-01T08:49:55.181Z,26.70
2019-06-01T08:52:35.490Z,25.90
2019-06-01T08:55:14.212Z,25.70
2019-06-01T08:58:02.272Z,25.70
2019-06-01T09:01:09.488Z,25.90
2019-06-01T09:03:57.801Z,26.40
2019-06-01T09:06:45.921Z,26.20
2019-06-01T09:09:53.169Z,26.10
2019-06-01T09:12:41.360Z,26.30
2019-06-01T09:18:23.642Z,27.00
2019-06-01T09:21:12.036Z,27.30
2019-06-01T09:24:00.206Z,27.50
2019-06-01T09:26:48.275Z,27.30
2019-06-01T09:29:55.512Z,27.20
2019-06-01T09:32:43.532Z,27.10
2019-06-01T09:35:50.124Z,26.70
2019-06-01T09:38:21.368Z,26.70
2019-06-01T09:41:09.460Z,26.50
2019-06-01T09:43:57.579Z,26.90
2019-06-01T09:46:45.602Z,26.80
2019-06-01T09:49:34.089Z,26.60
2019-06-01T09:52:04.414Z,26.40
2019-06-01T09:54:52.619Z,25.70
2019-06-01T09:57:40.621Z,25.40
2019-06-01T10:00:28.795Z,26.00
2019-06-01T10:03:16.961Z,26.40
2019-06-01T10:06:05.187Z,26.20
2019-06-01T10:08:53.218Z,26.30
2019-06-01T10:14:48.255Z,27.70
2019-06-01T10:17:37.038Z,28.30
2019-06-01T10:20:26.363Z,28.60
2019-06-01T10:23:14.490Z,28.50
2019-06-01T10:26:21.764Z,27.90
2019-06-01T10:29:09.907Z,27.90
2019-06-01T10:31:58.001Z,28.40
2019-06-01T10:34:46.158Z,28.80
2019-06-01T10:37:35.317Z,29.20
2019-06-01T10:40:24.175Z,28.40
2019-06-01T10:43:12.306Z,27.80
2019-06-01T10:46:00.359Z,27.60
2019-06-01T10:49:07.586Z,27.50
2019-06-01T10:51:55.765Z,27.50
2019-06-01T10:54:36.049Z,28.60
2019-06-01T10:57:24.300Z,29.00
2019-06-01T11:03:27.145Z,29.00
2019-06-01T11:06:15.360Z,28.20
2019-06-01T11:12:31.262Z,27.90
2019-06-01T11:18:35.152Z,27.90
2019-06-01T11:21:23.777Z,28.80
2019-06-01T11:24:23.271Z,28.90
2019-06-01T11:27:03.493Z,28.30
2019-06-01T11:35:47.790Z,29.60
2019-06-01T11:38:54.983Z,29.60
2019-06-01T11:41:43.042Z,28.50
2019-06-01T11:44:31.057Z,27.60
2019-06-01T11:50:56.288Z,27.40
2019-06-01T11:53:37.282Z,28.00
2019-06-01T11:56:17.905Z,29.20
2019-06-01T11:58:57.034Z,29.80
2019-06-01T12:01:46.017Z,30.30
2019-06-01T12:04:35.762Z,30.00
2019-06-01T12:07:25.160Z,30.00
2019-06-01T12:10:16.444Z,29.60
2019-06-01T12:13:04.603Z,30.00
2019-06-01T12:15:52.648Z,29.90
2019-06-01T12:18:40.808Z,29.50
2019-06-01T12:21:28.998Z,29.30
2019-06-01T12:24:17.200Z,29.20
2019-06-01T12:27:06.932Z,29.60
2019-06-01T12:29:54.988Z,30.20
2019-06-01T12:32:44.051Z,30.20
2019-06-01T12:35:32.849Z,30.30
2019-06-01T12:38:20.953Z,30.30
2019-06-01T12:41:09.060Z,30.30
2019-06-01T12:44:16.248Z,30.60
2019-06-01T12:47:23.478Z,30.40
2019-06-01T12:50:11.548Z,29.40
2019-06-01T12:52:59.784Z,29.30
2019-06-01T12:55:38.766Z,29.30
2019-06-01T12:58:26.863Z,29.20
2019-06-01T13:01:14.943Z,29.20
2019-06-01T13:04:03.088Z,29.40
2019-06-01T13:06:53.788Z,29.70
2019-06-01T13:09:41.965Z,30.00
2019-06-01T13:12:31.034Z,30.20
2019-06-01T13:15:41.125Z,29.90
2019-06-01T13:18:29.561Z,29.60
2019-06-01T13:21:17.597Z,29.80
2019-06-01T13:24:05.751Z,30.10
2019-06-01T13:30:23.141Z,30.50
2019-06-01T13:33:11.200Z,30.10
2019-06-01T13:36:02.109Z,30.00
2019-06-01T13:38:31.040Z,29.60
2019-06-01T13:40:59.878Z,29.50
2019-06-01T13:43:28.910Z,30.00
2019-06-01T14:04:07.883Z,29.20
2019-06-01T14:06:51.107Z,29.20
2019-06-01T14:12:51.427Z,29.00
2019-06-01T14:15:39.872Z,28.50
2019-06-01T14:18:08.766Z,28.60
2019-06-01T14:20:56.895Z,28.50
2019-06-01T14:23:48.108Z,28.60
2019-06-01T14:26:17.003Z,28.80
2019-06-01T14:28:46.105Z,28.80
2019-06-01T14:31:15.128Z,28.50
2019-06-01T14:39:03.402Z,28.30
2019-06-01T14:41:51.478Z,28.60
2019-06-01T14:44:20.278Z,28.10
2019-06-01T14:46:56.100Z,28.00
2019-06-01T14:49:45.425Z,27.90
2019-06-01T14:52:35.330Z,28.00
2019-06-01T14:55:15.865Z,27.90
2019-06-01T14:57:56.626Z,27.80
2019-06-01T15:27:11.875Z,27.80
2019-06-01T15:30:00.113Z,27.80
2019-06-01T15:39:32.240Z,27.20
2019-06-01T15:48:22.487Z,27.30
2019-06-01T15:51:29.929Z,27.30
2019-06-01T15:54:18.214Z,27.10
2019-06-01T15:57:06.284Z,27.20
2019-06-01T15:59:54.579Z,27.00
2019-06-01T16:02:45.867Z,27.20
2019-06-01T16:05:33.897Z,27.20
2019-06-01T16:08:16.085Z,27.20
2019-06-01T16:10:55.201Z,27.10
2019-06-01T16:13:43.553Z,27.20
2019-06-01T16:16:50.797Z,27.30
2019-06-01T16:19:39.042Z,27.40
2019-06-01T16:22:27.379Z,27.30
2019-06-01T16:25:15.574Z,27.10
2019-06-01T16:28:22.821Z,27.00
2019-06-01T16:30:51.630Z,27.00
2019-06-01T16:33:39.797Z,26.90
2019-06-01T16:36:28.052Z,26.80
2019-06-01T16:39:08.766Z,26.80
2019-06-01T16:41:49.305Z,26.90
2019-06-01T16:44:28.121Z,26.90
2019-06-01T16:47:16.242Z,26.80
2019-06-01T16:53:18.704Z,26.70
2019-06-01T16:56:06.846Z,26.60
2019-06-01T16:58:56.005Z,26.60
2019-06-01T17:01:44.905Z,26.60
2019-06-01T17:04:33.085Z,26.60
2019-06-01T17:07:21.254Z,26.50
2019-06-01T17:13:14.350Z,26.60
2019-06-01T17:16:05.166Z,26.50
2019-06-01T17:28:00.137Z,26.40
2019-06-01T17:30:50.032Z,26.30
2019-06-01T17:34:00.397Z,26.20
2019-06-01T17:37:11.321Z,26.10
2019-06-01T17:40:00.038Z,26.00
2019-06-01T17:42:49.576Z,26.00
2019-06-01T17:48:58.312Z,25.90
2019-06-01T17:51:46.521Z,25.90
2019-06-01T17:54:34.701Z,25.80
2019-06-01T17:57:23.024Z,25.70
2019-06-01T17:59:51.969Z,25.70
2019-06-01T18:02:40.328Z,25.60
2019-06-01T18:05:28.626Z,25.60
2019-06-01T18:07:57.700Z,25.50
2019-06-01T18:13:27.589Z,25.40
2019-06-01T18:16:15.126Z,25.30
2019-06-01T18:18:58.283Z,25.20
2019-06-01T18:21:27.259Z,25.20
2019-06-01T18:24:15.315Z,25.10
2019-06-01T18:26:56.113Z,25.10
2019-06-01T18:29:48.679Z,25.00
2019-06-01T18:32:34.087Z,24.90
2019-06-01T18:39:11.811Z,24.80
2019-06-01T18:42:01.337Z,24.70
2019-06-01T18:44:49.497Z,24.60
2019-06-01T18:47:37.653Z,24.60
2019-06-01T18:50:25.761Z,24.40
2019-06-01T18:52:54.625Z,24.40
2019-06-01T18:55:27.328Z,24.30
2019-06-01T18:58:14.834Z,24.20
2019-06-01T19:01:29.470Z,24.10
2019-06-01T19:10:54.095Z,23.70
2019-06-01T19:13:23.057Z,23.50
2019-06-01T19:16:12.217Z,23.40
2019-06-01T19:18:44.685Z,23.30
2019-06-01T19:21:14.753Z,23.20
2019-06-01T19:30:52.037Z,22.90
2019-06-01T19:33:20.837Z,22.80
2019-06-01T19:36:28.356Z,22.60
2019-06-01T19:39:18.920Z,22.50
2019-06-01T19:41:47.803Z,22.50
2019-06-01T19:44:17.758Z,22.40
2019-06-01T19:46:46.752Z,22.30
2019-06-01T19:49:16.805Z,22.20
2019-06-01T19:51:45.856Z,22.20
2019-06-01T19:54:15.040Z,22.10
2019-06-01T19:57:04.870Z,22.00
2019-06-01T19:59:33.758Z,21.90
2019-06-01T20:02:02.904Z,21.90
2019-06-01T20:04:31.976Z,21.80
2019-06-01T20:07:03.145Z,21.70
2019-06-01T20:09:34.797Z,21.60
2019-06-01T20:12:11.592Z,21.50
2019-06-01T20:14:54.633Z,21.40
2019-06-01T20:17:26.373Z,21.40
2019-06-01T20:19:59.959Z,21.40
2019-06-01T20:22:38.787Z,21.40
2019-06-01T20:25:08.553Z,21.30
2019-06-01T20:27:37.915Z,21.20
2019-06-01T20:30:11.610Z,21.10
2019-06-01T20:32:40.763Z,21.10
2019-06-01T20:35:09.978Z,21.00
2019-06-01T20:37:38.896Z,21.00
2019-06-01T20:40:08.621Z,21.00
2019-06-01T20:42:37.675Z,20.90
2019-06-01T20:45:08.744Z,20.80
2019-06-01T20:47:38.685Z,20.70
2019-06-01T20:56:19.396Z,20.60
2019-06-01T20:58:48.741Z,20.50
2019-06-01T21:01:27.653Z,20.40
2019-06-01T21:03:56.591Z,20.30
2019-06-01T21:07:44.851Z,20.30
2019-06-01T21:14:34.875Z,20.20
2019-06-01T21:20:30.016Z,20.10
2019-06-01T21:22:58.599Z,20.10
2019-06-01T21:33:01.855Z,19.90
2019-06-01T21:35:39.928Z,19.90
2019-06-01T21:38:08.867Z,19.90
2019-06-01T21:55:33.603Z,19.50
2019-06-01T21:58:02.506Z,19.40
2019-06-01T22:00:35.558Z,19.40
2019-06-01T22:03:25.492Z,19.30
2019-06-01T22:05:54.545Z,19.30
2019-06-01T22:08:23.526Z,19.30
2019-06-01T22:10:52.424Z,19.30
2019-06-01T22:13:25.512Z,19.40
2019-06-01T22:15:54.602Z,19.40
2019-06-01T22:18:25.896Z,19.30
2019-06-01T22:20:55.828Z,19.30
2019-06-01T22:30:30.159Z,19.20
2019-06-01T22:32:59.197Z,19.30
2019-06-01T22:43:46.788Z,19.30
2019-06-01T22:46:14.910Z,19.20
2019-06-01T22:49:09.123Z,19.10
2019-06-01T22:52:00.041Z,19.20
2019-06-01T22:54:29.388Z,19.20
2019-06-01T22:57:20.235Z,19.10
2019-06-01T22:59:49.657Z,19.10
2019-06-01T23:02:18.637Z,19.10
2019-06-01T23:04:49.041Z,19.10
2019-06-01T23:10:09.608Z,19.00
2019-06-01T23:12:38.444Z,19.00
2019-06-01T23:15:07.641Z,18.90
2019-06-01T23:17:36.561Z,18.90
2019-06-01T23:20:06.194Z,18.90
2019-06-01T23:22:35.197Z,18.90
2019-06-01T23:25:24.483Z,18.80
2019-06-01T23:27:53.454Z,18.80
2019-06-01T23:30:22.378Z,18.70
2019-06-01T23:32:51.186Z,18.60
2019-06-01T23:57:12.676Z,18.40
